createdAt,value
2022-08-19T00:01:53.284Z,18.97
2022-08-19T00:04:39.224Z,19.00
2022-08-19T00:07:24.375Z,18.92
2022-08-19T00:10:12.598Z,19.00
2022-08-19T00:12:57.485Z,18.97
2022-08-19T00:15:45.624Z,18.99
2022-08-19T00:18:30.538Z,18.98
2022-08-19T00:21:16.521Z,19.03
2022-08-19T00:24:02.093Z,19.08
2022-08-19T00:26:47.306Z,19.06
2022-08-19T00:29:32.409Z,19.03
2022-08-19T00:32:18.132Z,19.00
2022-08-19T00:35:04.864Z,19.00
2022-08-19T00:37:50.832Z,19.05
2022-08-19T00:40:36.405Z,19.08
2022-08-19T00:43:24.053Z,19.09
2022-08-19T00:46:09.492Z,19.09
2022-08-19T00:48:56.804Z,19.14
2022-08-19T00:51:43.050Z,19.14
2022-08-19T00:54:39.918Z,19.16
2022-08-19T00:57:36.046Z,19.18
2022-08-19T01:00:24.160Z,19.20
2022-08-19T01:03:12.909Z,19.25
2022-08-19T01:05:57.912Z,19.26
2022-08-19T01:08:43.391Z,19.23
2022-08-19T01:11:30.996Z,19.24
2022-08-19T01:14:17.682Z,19.22
2022-08-19T01:17:03.306Z,19.25
2022-08-19T01:19:49.139Z,19.19
2022-08-19T01:22:46.154Z,19.29
2022-08-19T01:25:36.495Z,19.37
2022-08-19T01:28:33.820Z,19.38
2022-08-19T01:31:26.987Z,19.38
2022-08-19T01:34:12.751Z,19.33
2022-08-19T01:36:58.154Z,19.45
2022-08-19T01:39:44.329Z,19.45
2022-08-19T01:42:30.840Z,19.48
2022-08-19T01:45:17.569Z,19.47
2022-08-19T01:48:03.524Z,19.48
2022-08-19T01:50:48.924Z,19.51
2022-08-19T01:53:34.526Z,19.50
2022-08-19T01:56:20.046Z,19.43
2022-08-19T01:59:11.695Z,19.48
2022-08-19T02:01:56.716Z,19.52
2022-08-19T02:04:41.965Z,19.47
2022-08-19T02:07:29.234Z,19.55
2022-08-19T02:10:20.298Z,19.55
2022-08-19T02:13:05.494Z,19.54
2022-08-19T02:15:50.643Z,19.58
2022-08-19T02:18:36.110Z,19.56
2022-08-19T02:21:23.398Z,19.57
2022-08-19T02:24:08.412Z,19.50
2022-08-19T02:26:53.837Z,19.59
2022-08-19T02:29:38.862Z,19.50
2022-08-19T02:32:24.034Z,19.57
2022-08-19T02:35:12.422Z,19.58
2022-08-19T02:38:16.529Z,19.60
2022-08-19T02:41:05.396Z,19.58
2022-08-19T02:44:28.548Z,19.63
2022-08-19T02:46:56.393Z,19.62
2022-08-19T02:49:42.108Z,19.64
2022-08-19T02:52:28.363Z,19.66
2022-08-19T02:55:13.593Z,19.61
2022-08-19T02:57:58.657Z,19.61
2022-08-19T03:00:46.626Z,19.67
2022-08-19T03:03:32.861Z,19.58
2022-08-19T03:06:18.412Z,19.67
2022-08-19T03:09:03.674Z,19.68
2022-08-19T03:11:48.997Z,19.62
2022-08-19T03:14:38.158Z,19.65
2022-08-19T03:17:23.179Z,19.63
2022-08-19T03:20:08.871Z,19.65
2022-08-19T03:22:54.233Z,19.72
2022-08-19T03:25:46.528Z,19.67
2022-08-19T03:28:49.519Z,19.72
2022-08-19T03:31:45.549Z,19.74
2022-08-19T03:34:39.321Z,19.75
2022-08-19T03:37:24.538Z,19.74
2022-08-19T03:40:16.354Z,19.76
2022-08-19T03:43:02.007Z,19.76
2022-08-19T03:45:47.914Z,19.77
2022-08-19T03:48:33.959Z,19.75
2022-08-19T03:51:30.668Z,19.78
2022-08-19T03:54:20.187Z,19.77
2022-08-19T03:57:05.253Z,19.73
2022-08-19T03:59:50.727Z,19.75
2022-08-19T04:02:35.799Z,19.63
2022-08-19T04:05:21.561Z,19.65
2022-08-19T04:08:14.001Z,19.71
2022-08-19T04:10:59.250Z,19.72
2022-08-19T04:13:45.341Z,19.71
2022-08-19T04:16:34.977Z,19.69
2022-08-19T04:19:21.194Z,19.67
2022-08-19T04:22:06.379Z,19.67
2022-08-19T04:24:51.463Z,19.67
2022-08-19T04:27:36.500Z,19.66
2022-08-19T04:30:23.485Z,19.62
2022-08-19T04:33:09.586Z,19.66
2022-08-19T04:35:54.526Z,19.63
2022-08-19T04:38:39.755Z,19.65
2022-08-19T04:41:44.664Z,19.66
2022-08-19T04:44:33.290Z,19.65
2022-08-19T04:47:20.157Z,19.65
2022-08-19T04:50:27.113Z,19.59
2022-08-19T04:53:12.062Z,19.60
2022-08-19T04:55:58.624Z,19.55
2022-08-19T04:58:45.256Z,19.58
2022-08-19T05:01:33.229Z,19.57
2022-08-19T05:04:21.531Z,19.54
2022-08-19T05:07:08.885Z,19.52
2022-08-19T05:09:58.390Z,19.50
2022-08-19T05:12:44.121Z,19.53
2022-08-19T05:15:29.225Z,19.56
2022-08-19T05:18:32.996Z,19.56
2022-08-19T05:21:39.189Z,19.55
2022-08-19T05:24:24.875Z,19.55
2022-08-19T05:27:10.165Z,19.52
2022-08-19T05:29:55.589Z,19.56
2022-08-19T05:32:41.267Z,19.58
2022-08-19T05:35:26.513Z,19.60
2022-08-19T05:38:12.097Z,19.61
2022-08-19T05:40:58.577Z,19.64
2022-08-19T05:43:43.926Z,19.62
2022-08-19T05:46:29.172Z,19.65
2022-08-19T05:49:16.663Z,19.64
2022-08-19T05:52:11.760Z,19.69
2022-08-19T05:54:57.807Z,19.73
2022-08-19T05:57:42.953Z,19.68
2022-08-19T06:00:28.606Z,19.74
2022-08-19T06:03:13.565Z,19.77
2022-08-19T06:06:00.396Z,19.83
2022-08-19T06:08:51.615Z,19.88
2022-08-19T06:11:46.125Z,19.89
2022-08-19T06:14:35.101Z,19.93
2022-08-19T06:17:26.622Z,19.93
2022-08-19T06:20:15.790Z,19.95
2022-08-19T06:23:00.810Z,20.02
2022-08-19T06:25:45.992Z,20.02
2022-08-19T06:28:31.150Z,20.34
2022-08-19T06:31:21.953Z,20.16
2022-08-19T06:34:07.077Z,20.11
2022-08-19T06:36:53.382Z,20.05
2022-08-19T06:39:40.193Z,20.12
2022-08-19T06:42:25.562Z,20.15
2022-08-19T06:45:11.251Z,20.12
2022-08-19T06:47:57.046Z,20.24
2022-08-19T06:50:42.078Z,20.24
2022-08-19T06:53:29.040Z,20.22
2022-08-19T06:56:16.581Z,20.23
2022-08-19T06:59:07.968Z,20.25
2022-08-19T07:01:55.262Z,20.20
2022-08-19T07:04:42.677Z,20.36
2022-08-19T07:07:27.826Z,20.38
2022-08-19T07:10:13.029Z,20.45
2022-08-19T07:12:58.326Z,20.45
2022-08-19T07:15:44.336Z,20.97
2022-08-19T07:18:29.304Z,21.67
2022-08-19T07:21:17.581Z,21.80
2022-08-19T07:24:05.416Z,21.90
2022-08-19T07:26:54.899Z,22.08
2022-08-19T07:29:39.860Z,21.96
2022-08-19T07:32:28.432Z,22.06
2022-08-19T07:35:13.449Z,21.75
2022-08-19T07:38:00.149Z,21.86
2022-08-19T07:40:46.853Z,21.54
2022-08-19T07:43:34.836Z,21.32
2022-08-19T07:46:23.782Z,21.30
2022-08-19T07:49:20.086Z,21.38
2022-08-19T07:52:08.952Z,21.31
2022-08-19T07:54:53.863Z,21.20
2022-08-19T07:57:39.822Z,21.31
2022-08-19T08:00:25.011Z,21.39
2022-08-19T08:03:15.718Z,21.40
2022-08-19T08:06:19.663Z,21.39
2022-08-19T08:09:12.418Z,21.55
2022-08-19T08:12:32.873Z,21.59
2022-08-19T08:15:17.291Z,21.66
2022-08-19T08:18:02.433Z,21.66
2022-08-19T08:20:47.841Z,21.68
2022-08-19T08:23:32.689Z,21.98
2022-08-19T08:26:19.386Z,22.11
2022-08-19T08:29:12.232Z,22.28
2022-08-19T08:31:58.662Z,22.07
2022-08-19T08:34:45.364Z,22.03
2022-08-19T08:37:35.170Z,22.12
2022-08-19T08:40:44.647Z,22.13
2022-08-19T08:43:34.225Z,21.97
2022-08-19T08:46:30.769Z,21.88
2022-08-19T08:49:44.605Z,21.85
2022-08-19T08:52:36.961Z,21.98
2022-08-19T08:55:36.857Z,22.06
2022-08-19T08:58:32.647Z,22.07
2022-08-19T09:01:18.114Z,22.07
2022-08-19T09:04:08.284Z,22.16
2022-08-19T09:07:36.007Z,22.26
2022-08-19T09:10:56.438Z,22.35
2022-08-19T09:14:23.560Z,22.51
2022-08-19T09:17:16.681Z,22.44
2022-08-19T09:20:16.814Z,22.18
2022-08-19T09:23:02.885Z,22.20
2022-08-19T09:25:47.984Z,22.22
2022-08-19T09:28:33.273Z,22.24
2022-08-19T09:31:22.355Z,22.28
2022-08-19T09:34:07.231Z,22.35
2022-08-19T09:36:54.137Z,22.50
2022-08-19T09:39:41.898Z,22.78
2022-08-19T09:42:30.039Z,22.98
2022-08-19T09:45:22.881Z,23.05
2022-08-19T09:48:07.860Z,23.03
2022-08-19T09:50:54.824Z,23.09
2022-08-19T09:53:40.187Z,22.97
2022-08-19T09:56:25.524Z,22.89
2022-08-19T09:59:11.331Z,22.77
2022-08-19T10:01:56.759Z,22.93
2022-08-19T10:05:07.877Z,22.98
2022-08-19T10:07:53.399Z,22.92
2022-08-19T10:10:38.532Z,22.98
2022-08-19T10:13:31.074Z,23.04
2022-08-19T10:16:19.752Z,22.95
2022-08-19T10:19:06.084Z,22.94
2022-08-19T10:21:51.330Z,23.01
2022-08-19T10:24:36.426Z,22.96
2022-08-19T10:27:22.264Z,23.06
2022-08-19T10:30:10.051Z,22.97
2022-08-19T10:32:56.080Z,22.94
2022-08-19T10:35:42.662Z,22.96
2022-08-19T10:38:51.232Z,23.12
2022-08-19T10:41:41.164Z,23.05
2022-08-19T10:44:32.097Z,23.27
2022-08-19T10:47:25.714Z,23.36
2022-08-19T10:50:30.161Z,23.44
2022-08-19T10:53:15.120Z,23.62
2022-08-19T10:56:18.620Z,23.58
2022-08-19T10:59:04.470Z,23.46
2022-08-19T11:01:50.573Z,23.29
2022-08-19T11:04:40.130Z,23.49
2022-08-19T11:07:27.374Z,23.40
2022-08-19T11:10:18.226Z,23.11
2022-08-19T11:13:05.999Z,22.94
2022-08-19T11:16:06.795Z,22.83
2022-08-19T11:18:55.881Z,22.79
2022-08-19T11:21:43.873Z,22.39
2022-08-19T11:24:29.921Z,22.08
2022-08-19T11:27:15.253Z,22.03
2022-08-19T11:30:01.487Z,21.99
2022-08-19T11:32:51.920Z,21.76
2022-08-19T11:35:40.985Z,21.65
2022-08-19T11:38:26.909Z,21.59
2022-08-19T11:41:12.074Z,21.64
2022-08-19T11:43:57.410Z,21.58
2022-08-19T11:46:47.444Z,21.59
2022-08-19T11:49:32.756Z,21.51
2022-08-19T11:52:18.138Z,21.53
2022-08-19T11:55:03.649Z,21.50
2022-08-19T11:57:48.731Z,21.65
2022-08-19T12:00:36.389Z,21.52
2022-08-19T12:03:21.701Z,21.69
2022-08-19T12:06:09.810Z,21.64
2022-08-19T12:08:56.345Z,21.36
2022-08-19T12:11:41.981Z,21.25
2022-08-19T12:14:28.873Z,21.21
2022-08-19T12:17:14.328Z,21.15
2022-08-19T12:19:59.252Z,21.31
2022-08-19T12:22:44.605Z,21.32
2022-08-19T12:25:29.558Z,21.31
2022-08-19T12:28:14.841Z,21.37
2022-08-19T12:31:00.280Z,21.40
2022-08-19T12:33:47.677Z,21.37
2022-08-19T12:36:32.779Z,21.43
2022-08-19T12:39:18.406Z,21.46
2022-08-19T12:42:03.297Z,21.59
2022-08-19T12:44:48.537Z,21.62
2022-08-19T12:47:34.009Z,21.55
2022-08-19T12:50:23.293Z,21.56
2022-08-19T12:53:08.680Z,21.77
2022-08-19T12:55:58.396Z,21.99
2022-08-19T12:58:48.715Z,22.26
2022-08-19T13:01:35.408Z,22.62
2022-08-19T13:04:20.810Z,22.80
2022-08-19T13:07:05.952Z,22.62
2022-08-19T13:09:52.856Z,22.60
2022-08-19T13:12:37.777Z,22.62
2022-08-19T13:15:24.508Z,22.59
2022-08-19T13:18:11.467Z,23.02
2022-08-19T13:20:57.402Z,23.08
2022-08-19T13:23:42.521Z,23.46
2022-08-19T13:26:27.853Z,23.51
2022-08-19T13:29:31.802Z,23.59
2022-08-19T13:32:35.801Z,23.66
2022-08-19T13:35:21.182Z,23.91
2022-08-19T13:38:11.972Z,24.18
2022-08-19T13:41:08.125Z,24.10
2022-08-19T13:43:55.719Z,24.18
2022-08-19T13:46:40.773Z,24.62
2022-08-19T13:49:25.975Z,25.01
2022-08-19T13:52:10.875Z,24.90
2022-08-19T13:54:57.412Z,24.57
2022-08-19T13:57:43.164Z,24.78
2022-08-19T14:00:31.635Z,24.57
2022-08-19T14:03:17.128Z,24.47
2022-08-19T14:06:02.860Z,24.97
2022-08-19T14:08:48.015Z,25.77
2022-08-19T14:11:33.237Z,25.69
2022-08-19T14:14:18.332Z,25.55
2022-08-19T14:17:07.090Z,25.48
2022-08-19T14:20:10.497Z,26.12
2022-08-19T14:22:56.434Z,26.75
2022-08-19T14:25:41.889Z,26.75
2022-08-19T14:28:28.310Z,27.15
2022-08-19T14:31:19.357Z,27.51
2022-08-19T14:34:04.489Z,27.32
2022-08-19T14:36:49.939Z,27.66
2022-08-19T14:39:35.300Z,28.24
2022-08-19T14:42:20.991Z,28.46
2022-08-19T14:45:07.221Z,28.45
2022-08-19T14:47:52.940Z,28.80
2022-08-19T14:50:38.445Z,28.31
2022-08-19T14:53:23.466Z,28.36
2022-08-19T14:56:11.805Z,28.49
2022-08-19T14:59:00.301Z,28.53
2022-08-19T15:01:45.591Z,27.71
2022-08-19T15:04:33.699Z,27.88
2022-08-19T15:07:19.068Z,28.36
2022-08-19T15:10:10.532Z,27.99
2022-08-19T15:12:55.833Z,26.91
2022-08-19T15:15:40.970Z,27.02
2022-08-19T15:18:26.319Z,26.79
2022-08-19T15:21:13.461Z,26.54
2022-08-19T15:23:59.820Z,26.65
2022-08-19T15:26:45.019Z,26.84
2022-08-19T15:29:30.169Z,26.76
2022-08-19T15:32:15.441Z,26.73
2022-08-19T15:35:02.434Z,26.51
2022-08-19T15:37:51.131Z,26.35
2022-08-19T15:40:36.384Z,25.98
2022-08-19T15:43:22.286Z,25.70
2022-08-19T15:46:07.487Z,25.63
2022-08-19T15:48:55.952Z,25.56
2022-08-19T15:51:43.653Z,25.52
2022-08-19T15:54:28.762Z,25.48
2022-08-19T15:57:22.821Z,25.35
2022-08-19T16:00:26.891Z,25.27
2022-08-19T16:03:33.061Z,25.16
2022-08-19T16:06:28.230Z,25.08
2022-08-19T16:09:14.172Z,24.92
2022-08-19T16:12:06.074Z,24.89
2022-08-19T16:14:51.019Z,24.75
2022-08-19T16:17:36.502Z,24.69
2022-08-19T16:20:22.239Z,24.65
2022-08-19T16:23:10.079Z,24.68
2022-08-19T16:25:55.289Z,24.56
2022-08-19T16:28:41.553Z,24.47
2022-08-19T16:31:27.459Z,24.42
2022-08-19T16:34:13.771Z,24.40
2022-08-19T16:36:58.716Z,24.32
2022-08-19T16:39:44.551Z,24.20
2022-08-19T16:42:29.636Z,24.14
2022-08-19T16:45:15.209Z,24.13
2022-08-19T16:48:00.727Z,24.02
2022-08-19T16:50:49.461Z,23.92
2022-08-19T16:53:35.428Z,23.79
2022-08-19T16:56:21.425Z,23.73
2022-08-19T16:59:06.523Z,23.70
2022-08-19T17:01:52.321Z,23.51
2022-08-19T17:04:37.465Z,23.43
2022-08-19T17:07:22.706Z,23.38
2022-08-19T17:10:08.729Z,23.24
2022-08-19T17:12:54.827Z,23.22
2022-08-19T17:15:40.230Z,23.08
2022-08-19T17:18:26.180Z,23.10
2022-08-19T17:21:16.731Z,23.09
2022-08-19T17:24:04.930Z,23.03
2022-08-19T17:26:49.843Z,22.97
2022-08-19T17:29:34.871Z,22.90
2022-08-19T17:32:24.772Z,22.83
2022-08-19T17:35:10.941Z,22.78
2022-08-19T17:37:56.447Z,22.77
2022-08-19T17:40:43.050Z,22.73
2022-08-19T17:43:32.346Z,22.69
2022-08-19T17:46:20.293Z,22.59
2022-08-19T17:49:06.665Z,22.52
2022-08-19T17:51:53.398Z,22.38
2022-08-19T17:54:38.781Z,22.42
2022-08-19T17:57:24.455Z,22.40
2022-08-19T18:00:15.972Z,22.31
2022-08-19T18:03:04.729Z,22.23
2022-08-19T18:05:51.313Z,22.17
2022-08-19T18:08:38.910Z,22.08
2022-08-19T18:11:24.374Z,22.07
2022-08-19T18:14:09.646Z,22.03
2022-08-19T18:16:58.141Z,22.02
2022-08-19T18:19:44.359Z,21.97
2022-08-19T18:22:36.919Z,21.96
2022-08-19T18:25:25.758Z,21.79
2022-08-19T18:28:10.710Z,21.77
2022-08-19T18:30:56.390Z,21.74
2022-08-19T18:33:44.173Z,21.67
2022-08-19T18:36:52.515Z,21.57
2022-08-19T18:39:53.881Z,21.46
2022-08-19T18:43:22.868Z,21.46
2022-08-19T18:46:26.743Z,21.22
2022-08-19T18:49:30.690Z,21.25
2022-08-19T18:52:15.933Z,21.20
2022-08-19T18:55:01.638Z,21.13
2022-08-19T18:57:46.689Z,21.00
2022-08-19T19:00:32.158Z,21.02
2022-08-19T19:03:17.289Z,20.92
2022-08-19T19:06:03.617Z,20.87
2022-08-19T19:08:50.253Z,20.83
2022-08-19T19:11:39.158Z,20.76
2022-08-19T19:14:48.183Z,20.64
2022-08-19T19:17:34.617Z,20.53
2022-08-19T19:20:19.930Z,20.49
2022-08-19T19:23:05.069Z,20.39
2022-08-19T19:25:52.304Z,20.22
2022-08-19T19:28:43.577Z,20.25
2022-08-19T19:31:28.828Z,20.17
2022-08-19T19:34:28.893Z,20.11
2022-08-19T19:37:16.249Z,20.01
2022-08-19T19:40:01.614Z,19.97
2022-08-19T19:42:48.103Z,19.83
2022-08-19T19:45:33.484Z,19.78
2022-08-19T19:48:18.397Z,19.73
2022-08-19T19:51:04.450Z,19.69
2022-08-19T19:53:49.548Z,19.63
2022-08-19T19:56:35.348Z,19.50
2022-08-19T19:59:20.718Z,19.37
2022-08-19T20:02:06.303Z,19.34
2022-08-19T20:04:52.871Z,19.33
2022-08-19T20:07:57.488Z,19.18
2022-08-19T20:10:43.733Z,19.03
2022-08-19T20:13:29.484Z,18.99
2022-08-19T20:16:14.498Z,18.90
2022-08-19T20:19:01.890Z,18.84
2022-08-19T20:21:51.419Z,18.79
2022-08-19T20:24:37.222Z,18.72
2022-08-19T20:27:23.589Z,18.66
2022-08-19T20:30:19.500Z,18.70
2022-08-19T20:33:08.345Z,18.61
2022-08-19T20:35:53.969Z,18.44
2022-08-19T20:38:39.622Z,18.36
2022-08-19T20:41:24.822Z,18.35
2022-08-19T20:44:10.103Z,18.28
2022-08-19T20:46:58.388Z,18.29
2022-08-19T20:49:45.749Z,18.17
2022-08-19T20:52:31.256Z,18.16
2022-08-19T20:55:16.537Z,18.01
2022-08-19T20:58:03.941Z,18.08
2022-08-19T21:00:49.902Z,17.99
2022-08-19T21:03:42.495Z,17.97
2022-08-19T21:06:28.456Z,17.97
2022-08-19T21:09:14.986Z,17.93
2022-08-19T21:12:00.092Z,17.89
2022-08-19T21:14:45.645Z,17.93
2022-08-19T21:17:31.419Z,17.91
2022-08-19T21:20:16.458Z,17.88
2022-08-19T21:23:06.787Z,17.73
2022-08-19T21:25:54.547Z,17.62
2022-08-19T21:28:40.130Z,17.56
2022-08-19T21:31:25.333Z,17.58
2022-08-19T21:34:10.595Z,17.51
2022-08-19T21:36:55.588Z,17.50
2022-08-19T21:39:40.695Z,17.45
2022-08-19T21:42:25.796Z,17.33
2022-08-19T21:45:12.164Z,17.40
2022-08-19T21:47:57.063Z,17.24
2022-08-19T21:50:44.412Z,17.24
2022-08-19T21:53:34.584Z,17.16
2022-08-19T21:56:20.133Z,17.04
2022-08-19T21:59:05.264Z,17.04
2022-08-19T22:02:05.648Z,16.92
2022-08-19T22:04:57.226Z,16.98
2022-08-19T22:07:42.824Z,16.94
2022-08-19T22:10:31.210Z,16.87
2022-08-19T22:13:18.231Z,16.79
2022-08-19T22:16:04.349Z,16.90
2022-08-19T22:18:54.325Z,16.92
2022-08-19T22:21:41.261Z,16.86
2022-08-19T22:24:27.019Z,16.79
2022-08-19T22:27:12.341Z,16.61
2022-08-19T22:29:58.290Z,16.72
2022-08-19T22:32:48.829Z,16.71
2022-08-19T22:35:42.778Z,16.64
2022-08-19T22:38:28.202Z,16.52
2022-08-19T22:41:13.453Z,16.52
2022-08-19T22:43:59.074Z,16.48
2022-08-19T22:46:44.169Z,16.46
2022-08-19T22:49:29.372Z,16.33
2022-08-19T22:52:19.245Z,16.46
2022-08-19T22:55:06.804Z,16.45
2022-08-19T22:57:53.432Z,16.44
2022-08-19T23:00:38.644Z,16.36
2022-08-19T23:03:25.258Z,16.27
2022-08-19T23:06:10.770Z,16.25
2022-08-19T23:08:56.763Z,16.19
2022-08-19T23:11:42.383Z,16.08
2022-08-19T23:14:28.104Z,16.08
2022-08-19T23:17:13.065Z,16.12
2022-08-19T23:19:59.825Z,16.10
2022-08-19T23:22:49.551Z,16.07
2022-08-19T23:25:36.506Z,16.07
2022-08-19T23:28:41.190Z,16.02
2022-08-19T23:31:26.799Z,15.96
2022-08-19T23:34:11.881Z,15.88
2022-08-19T23:36:56.716Z,15.92
2022-08-19T23:39:41.610Z,15.79
2022-08-19T23:42:28.853Z,15.70
2022-08-19T23:45:14.771Z,15.75
2022-08-19T23:48:07.852Z,15.75
2022-08-19T23:50:53.422Z,15.75
2022-08-19T23:53:40.424Z,15.72
2022-08-19T23:56:25.576Z,15.55
2022-08-19T23:59:10.965Z,15.58
